Time;durP1;ratioP1;P1;durP2;ratioP2;P2;SDS_P1;SDS_P2;PMS_P1;PMS_P2;Temp;Humidity;BMP_temperature;BMP_pressure;BME280_temperature;BME280_humidity;BME280_pressure;Samples;Min_cycle;Max_cycle;Signal;HPM_P1;HPM_P2
2022/01/07 00:01:28;;;;;;;3.37;2.27;;;;;;;-5.37;85.68;98275.75;6248595;28;20227;-73
2022/01/07 00:04:32;;;;;;;4.03;1.77;;;;;;;-5.41;85.80;98284.38;6249829;28;20231;-73
2022/01/07 00:07:34;;;;;;;3.30;1.93;;;;;;;-5.43;86.13;98278.38;6253989;28;20235;-71
2022/01/07 00:10:37;;;;;;;3.40;1.73;;;;;;;-5.49;85.98;98278.41;6256249;28;20230;-73
2022/01/07 00:13:39;;;;;;;2.83;2.17;;;;;;;-5.48;86.04;98281.81;6255026;28;20235;-72
2022/01/07 00:16:41;;;;;;;3.73;2.20;;;;;;;-5.52;86.32;98275.88;6249058;28;20231;-72
2022/01/07 00:19:43;;;;;;;3.67;1.60;;;;;;;-5.55;86.03;98277.59;6254883;28;20227;-73
2022/01/07 00:22:46;;;;;;;2.17;1.90;;;;;;;-5.58;86.05;98284.47;6253666;28;20238;-73
2022/01/07 00:25:49;;;;;;;2.20;1.70;;;;;;;-5.60;85.93;98277.66;6255868;28;20230;-73
2022/01/07 00:28:51;;;;;;;1.97;1.57;;;;;;;-5.63;86.28;98269.94;6255314;28;20230;-73
2022/01/07 00:31:53;;;;;;;1.43;1.30;;;;;;;-5.68;86.10;98274.25;6256618;28;20598;-72
2022/01/07 00:34:55;;;;;;;2.93;1.67;;;;;;;-5.73;85.79;98273.44;6241629;28;20227;-73
2022/01/07 00:37:57;;;;;;;2.47;1.40;;;;;;;-5.76;85.81;98271.75;6229469;28;20219;-72
2022/01/07 00:40:59;;;;;;;3.10;1.57;;;;;;;-5.79;85.82;98276.88;6239745;28;20657;-73
2022/01/07 00:44:03;;;;;;;1.93;1.50;;;;;;;-5.80;86.41;98285.50;6255035;28;20219;-73
2022/01/07 00:47:05;;;;;;;2.50;1.53;;;;;;;-5.78;86.38;98285.47;6237864;28;20224;-73
2022/01/07 00:50:09;;;;;;;3.67;1.37;;;;;;;-5.86;86.16;98289.78;6228371;28;20230;-73
2022/01/07 00:53:11;;;;;;;2.33;1.50;;;;;;;-5.92;86.05;98289.88;6229785;28;20236;-73
2022/01/07 00:56:13;;;;;;;1.80;1.40;;;;;;;-5.98;86.56;98291.59;6250756;28;20227;-72
2022/01/07 00:59:15;;;;;;;3.30;1.47;;;;;;;-6.04;86.43;98296.78;6253539;28;20246;-72
2022/01/07 01:02:17;;;;;;;2.93;1.60;;;;;;;-6.08;85.99;98296.78;6253557;28;20226;-73
2022/01/07 01:05:19;;;;;;;1.63;1.23;;;;;;;-6.14;85.72;98289.13;6254763;28;20250;-72
2022/01/07 01:08:21;;;;;;;4.10;1.47;;;;;;;-6.19;85.92;98284.03;6252486;28;20227;-73
2022/01/07 01:11:23;;;;;;;2.90;1.77;;;;;;;-6.23;85.53;98282.31;6255317;28;20230;-73
2022/01/07 01:14:25;;;;;;;3.03;1.60;;;;;;;-6.24;86.03;98272.91;6236295;28;20239;-73
2022/01/07 01:17:27;;;;;;;2.20;1.60;;;;;;;-6.24;85.73;98278.03;6231802;28;20235;-72
2022/01/07 01:20:29;;;;;;;4.10;1.90;;;;;;;-6.28;86.34;98284.03;6251867;28;20234;-73
2022/01/07 01:23:32;;;;;;;4.07;1.30;;;;;;;-6.27;85.71;98283.16;6254430;28;20235;-72
2022/01/07 01:26:34;;;;;;;1.67;1.20;;;;;;;-6.31;85.72;98278.94;6253942;28;20226;-72
2022/01/07 01:29:37;;;;;;;4.37;1.60;;;;;;;-6.37;85.97;98281.50;6254420;28;20223;-72
2022/01/07 01:32:40;;;;;;;5.10;1.50;;;;;;;-6.41;85.40;98278.13;6259566;28;20300;-72
2022/01/07 01:35:42;;;;;;;3.13;1.67;;;;;;;-6.43;86.07;98274.69;6232757;28;20226;-72
2022/01/07 01:38:44;;;;;;;2.60;1.60;;;;;;;-6.49;85.64;98269.59;6232484;28;20279;-72
2022/01/07 01:41:46;;;;;;;2.10;1.60;;;;;;;-6.50;86.12;98272.16;6251792;28;20221;-72
2022/01/07 01:44:48;;;;;;;3.20;1.57;;;;;;;-6.51;85.30;98267.88;6253109;28;20227;-72
2022/01/07 01:47:54;;;;;;;2.50;1.87;;;;;;;-6.52;86.14;98263.59;6242976;28;20237;-73
2022/01/07 01:50:56;;;;;;;2.50;1.37;;;;;;;-6.53;85.86;98265.31;6245925;28;20223;-72
2022/01/07 01:53:59;;;;;;;1.70;1.20;;;;;;;-6.53;85.82;98272.16;6253437;28;20738;-72
2022/01/07 01:57:01;;;;;;;3.00;1.67;;;;;;;-6.52;86.10;98277.28;6252362;28;20238;-71
2022/01/07 02:00:06;;;;;;;3.37;1.40;;;;;;;-6.55;86.70;98267.03;6251995;28;20231;-72
2022/01/07 02:03:12;;;;;;;1.77;1.30;;;;;;;-6.61;86.04;98281.59;6253198;28;20208;-73
2022/01/07 02:06:15;;;;;;;1.60;1.33;;;;;;;-6.64;85.45;98281.59;6252687;28;20214;-72
2022/01/07 02:09:20;;;;;;;2.00;1.33;;;;;;;-6.69;86.54;98293.59;6253783;28;20234;-72
2022/01/07 02:12:22;;;;;;;1.70;1.23;;;;;;;-6.71;86.48;98283.34;6252090;28;20231;-71
2022/01/07 02:15:24;;;;;;;1.60;1.30;;;;;;;-6.75;85.68;98285.06;6249892;28;20243;-72
2022/01/07 02:18:26;;;;;;;2.57;1.50;;;;;;;-6.77;85.33;98275.63;6246894;28;20245;-72
2022/01/07 02:21:28;;;;;;;1.83;1.30;;;;;;;-6.77;85.21;98278.19;6252303;28;20284;-72
2022/01/07 02:24:31;;;;;;;1.43;1.30;;;;;;;-6.82;85.42;98277.38;6253632;28;20268;-72
2022/01/07 02:27:37;;;;;;;1.90;1.30;;;;;;;-6.85;85.91;98282.50;6252972;28;20226;-73
2022/01/07 02:30:39;;;;;;;2.73;1.30;;;;;;;-6.88;85.62;98283.34;6261624;28;20238;-72
2022/01/07 02:33:41;;;;;;;2.40;1.50;;;;;;;-6.89;85.56;98286.81;6258856;28;20238;-72
2022/01/07 02:36:43;;;;;;;2.07;1.30;;;;;;;-6.90;85.58;98279.09;6235873;28;20231;-73
2022/01/07 02:39:46;;;;;;;4.10;1.70;;;;;;;-6.91;86.36;98272.25;6257512;28;20237;-72
2022/01/07 02:42:48;;;;;;;4.87;2.00;;;;;;;-6.91;86.11;98279.97;6260255;28;20242;-72
2022/01/07 02:45:50;;;;;;;2.93;1.60;;;;;;;-6.90;86.60;98281.69;6253693;28;20240;-72
2022/01/07 02:48:52;;;;;;;3.87;1.60;;;;;;;-6.90;86.47;98279.09;6235548;28;20237;-73
2022/01/07 02:51:54;;;;;;;2.30;1.47;;;;;;;-6.90;86.55;98264.56;6245104;28;20440;-72
2022/01/07 02:54:56;;;;;;;1.77;1.50;;;;;;;-6.91;85.67;98268.00;6260398;28;20238;-72
2022/01/07 02:57:58;;;;;;;1.97;1.50;;;;;;;-6.92;86.47;98262.84;6260887;28;20222;-72
2022/01/07 03:01:00;;;;;;;2.70;1.40;;;;;;;-6.93;85.49;98259.44;6242573;28;20253;-72
2022/01/07 03:04:04;;;;;;;3.03;1.50;;;;;;;-6.98;85.32;98252.59;6211698;28;20327;-73
2022/01/07 03:07:06;;;;;;;2.00;1.60;;;;;;;-7.00;85.99;98256.91;6255108;28;20233;-73
2022/01/07 03:10:09;;;;;;;2.33;1.63;;;;;;;-7.00;85.77;98262.03;6250587;28;20226;-72
2022/01/07 03:13:11;;;;;;;1.90;1.33;;;;;;;-7.01;85.48;98256.03;6259365;28;20242;-72
2022/01/07 03:16:13;;;;;;;3.93;1.60;;;;;;;-7.00;86.26;98249.19;6250293;28;20238;-72
2022/01/07 03:19:15;;;;;;;1.33;1.23;;;;;;;-7.01;86.56;98250.06;6242462;28;20231;-71
2022/01/07 03:22:17;;;;;;;1.87;1.13;;;;;;;-6.99;85.78;98241.50;6260192;28;20231;-72
2022/01/07 03:25:19;;;;;;;3.13;1.10;;;;;;;-7.00;86.51;98244.06;6259446;28;20718;-72
2022/01/07 03:28:21;;;;;;;1.23;1.13;;;;;;;-6.98;86.02;98248.31;6260368;28;20237;-72
2022/01/07 03:31:23;;;;;;;4.10;1.20;;;;;;;-6.98;86.61;98250.03;6260122;28;20230;-72
2022/01/07 03:34:26;;;;;;;2.43;1.30;;;;;;;-7.00;86.04;98241.50;6251295;28;20228;-72
2022/01/07 03:37:27;;;;;;;2.90;1.20;;;;;;;-7.02;85.75;98235.53;6235306;28;20715;-72
2022/01/07 03:40:30;;;;;;;1.57;1.10;;;;;;;-7.04;86.31;98239.78;6243739;28;20242;-72
2022/01/07 03:43:32;;;;;;;1.43;1.20;;;;;;;-7.06;85.62;98237.22;6255731;28;20239;-72
2022/01/07 03:46:35;;;;;;;1.50;0.87;;;;;;;-7.08;86.47;98234.66;6249469;28;20230;-72
2022/01/07 03:49:37;;;;;;;1.53;1.37;;;;;;;-7.04;86.89;98234.66;6232168;28;20236;-72
2022/01/07 03:52:40;;;;;;;3.27;1.20;;;;;;;-7.04;86.24;98232.09;6230381;28;20234;-72
2022/01/07 03:55:42;;;;;;;0.97;0.87;;;;;;;-7.06;86.85;98232.09;6254307;28;20230;-72
2022/01/07 03:58:45;;;;;;;1.47;1.00;;;;;;;-7.05;86.59;98232.94;6257811;28;20321;-71
2022/01/07 04:01:46;;;;;;;1.10;1.00;;;;;;;-7.06;86.52;98234.66;6256149;28;20235;-72
2022/01/07 04:04:49;;;;;;;3.60;1.03;;;;;;;-7.11;86.59;98228.69;6254393;28;20227;-72
2022/01/07 04:07:51;;;;;;;2.90;1.07;;;;;;;-7.11;86.89;98229.56;6255577;28;20233;-73
2022/01/07 04:10:53;;;;;;;2.90;0.93;;;;;;;-7.14;85.78;98237.25;6254149;28;20230;-72
2022/01/07 04:13:55;;;;;;;2.60;1.50;;;;;;;-7.15;86.03;98234.69;6252902;28;20291;-72
2022/01/07 04:16:59;;;;;;;2.17;1.27;;;;;;;-7.15;86.87;98227.00;6238511;28;20238;-72
2022/01/07 04:20:00;;;;;;;3.43;1.10;;;;;;;-7.15;86.28;98232.97;6255467;28;20231;-72
2022/01/07 04:23:05;;;;;;;2.20;1.10;;;;;;;-7.15;85.71;98219.28;6252891;28;20769;-72
2022/01/07 04:26:07;;;;;;;1.87;0.90;;;;;;;-7.15;86.26;98216.72;6256818;28;20318;-72
2022/01/07 04:29:09;;;;;;;1.73;1.00;;;;;;;-7.21;86.61;98217.59;6253832;28;20230;-72
2022/01/07 04:32:11;;;;;;;4.00;1.10;;;;;;;-7.23;86.09;98213.34;6254865;28;20237;-72
2022/01/07 04:35:13;;;;;;;4.07;1.00;;;;;;;-7.25;85.72;98226.16;6239392;28;20238;-71
2022/01/07 04:38:15;;;;;;;2.87;1.00;;;;;;;-7.28;85.85;98226.16;6234752;28;20227;-72
2022/01/07 04:41:17;;;;;;;2.63;0.87;;;;;;;-7.30;86.17;98237.28;6254797;28;20230;-71
2022/01/07 04:44:20;;;;;;;2.40;0.80;;;;;;;-7.34;86.54;98233.84;6255084;28;20232;-72
2022/01/07 04:47:23;;;;;;;1.57;0.87;;;;;;;-7.35;85.52;98232.13;6237648;28;20449;-71
2022/01/07 04:50:25;;;;;;;1.13;0.87;;;;;;;-7.37;86.07;98225.31;6236079;28;20720;-72
2022/01/07 04:53:27;;;;;;;0.97;0.60;;;;;;;-7.39;86.42;98221.91;6251020;28;20242;-73
2022/01/07 04:56:28;;;;;;;1.60;0.77;;;;;;;-7.39;86.05;98212.50;6257683;28;20234;-72
2022/01/07 04:59:30;;;;;;;0.83;0.70;;;;;;;-7.37;85.90;98215.03;6255765;28;20235;-72
2022/01/07 05:02:33;;;;;;;2.90;0.80;;;;;;;-7.38;86.03;98206.50;6259409;28;20234;-72
2022/01/07 05:05:36;;;;;;;0.80;0.60;;;;;;;-7.39;85.66;98209.09;6254278;28;20223;-72
2022/01/07 05:08:37;;;;;;;1.30;0.93;;;;;;;-7.43;85.60;98220.19;6253442;28;20234;-71
2022/01/07 05:11:39;;;;;;;0.60;0.50;;;;;;;-7.45;85.99;98208.22;6252827;28;20303;-72
2022/01/07 05:14:41;;;;;;;0.97;0.80;;;;;;;-7.44;85.24;98209.09;6252012;28;20230;-72
2022/01/07 05:17:45;;;;;;;1.13;0.70;;;;;;;-7.45;85.95;98203.09;6249728;28;20230;-71
2022/01/07 05:20:48;;;;;;;2.13;0.70;;;;;;;-7.46;86.13;98206.53;6253708;28;20235;-72
2022/01/07 05:23:50;;;;;;;0.87;0.80;;;;;;;-7.48;85.65;98205.66;6252265;28;20234;-72
2022/01/07 05:26:52;;;;;;;2.97;0.60;;;;;;;-7.48;86.68;98205.66;6254421;28;20702;-72
2022/01/07 05:29:54;;;;;;;1.43;0.80;;;;;;;-7.47;86.24;98206.50;6254359;28;20226;-72
2022/01/07 05:32:55;;;;;;;0.60;0.50;;;;;;;-7.47;86.36;98199.69;6253402;28;20242;-72
2022/01/07 05:35:57;;;;;;;1.00;0.80;;;;;;;-7.45;85.72;98204.81;6231959;28;20718;-71
2022/01/07 05:38:59;;;;;;;0.70;0.50;;;;;;;-7.50;85.65;98217.66;6228320;28;20719;-72
2022/01/07 05:42:02;;;;;;;0.60;0.60;;;;;;;-7.49;86.10;98210.81;6247379;28;20249;-72
2022/01/07 05:45:04;;;;;;;2.47;1.40;;;;;;;-7.52;86.27;98201.41;6253246;28;20678;-72
2022/01/07 05:48:06;;;;;;;0.60;0.60;;;;;;;-7.50;86.24;98203.97;6228131;28;20215;-72
2022/01/07 05:51:09;;;;;;;2.17;0.60;;;;;;;-7.52;85.13;98198.84;6235683;28;20222;-73
2022/01/07 05:54:11;;;;;;;1.00;0.70;;;;;;;-7.53;85.55;98203.97;6253192;28;20217;-72
2022/01/07 05:57:12;;;;;;;2.80;0.60;;;;;;;-7.53;85.41;98209.09;6251932;28;20221;-72
2022/01/07 06:00:15;;;;;;;0.80;0.70;;;;;;;-7.55;86.03;98216.78;6253102;28;20230;-73
2022/01/07 06:03:17;;;;;;;0.87;0.50;;;;;;;-7.57;85.94;98218.47;6253754;28;20227;-72
2022/01/07 06:06:19;;;;;;;2.40;0.50;;;;;;;-7.59;86.16;98212.53;6253152;28;20215;-72
2022/01/07 06:09:21;;;;;;;3.43;0.80;;;;;;;-7.58;86.12;98216.75;6251183;28;20241;-72
2022/01/07 06:12:23;;;;;;;2.73;1.13;;;;;;;-7.60;85.79;98223.63;6253538;28;20226;-72
2022/01/07 06:15:25;;;;;;;3.37;0.80;;;;;;;-7.58;86.55;98221.03;6248815;28;20235;-72
2022/01/07 06:18:27;;;;;;;1.00;0.70;;;;;;;-7.58;85.84;98211.63;6235025;28;20238;-72
2022/01/07 06:21:30;;;;;;;0.70;0.50;;;;;;;-7.60;86.05;98213.38;6252510;28;20223;-72
2022/01/07 06:24:32;;;;;;;0.80;0.70;;;;;;;-7.61;85.62;98216.78;6253429;28;20234;-73
2022/01/07 06:27:34;;;;;;;0.83;0.67;;;;;;;-7.60;85.56;98222.78;6253275;28;20260;-71
2022/01/07 06:30:36;;;;;;;1.77;0.60;;;;;;;-7.57;85.54;98227.88;6253590;28;20249;-73
2022/01/07 06:33:39;;;;;;;0.93;0.60;;;;;;;-7.56;85.95;98225.31;6250967;28;20229;-72
2022/01/07 06:36:41;;;;;;;2.10;0.73;;;;;;;-7.56;85.55;98221.91;6227727;28;20238;-72
2022/01/07 06:39:43;;;;;;;3.03;0.80;;;;;;;-7.60;85.85;98225.34;6239048;28;20232;-72
2022/01/07 06:42:45;;;;;;;0.70;0.70;;;;;;;-7.60;86.31;98227.91;6251139;28;20226;-73
2022/01/07 06:45:47;;;;;;;1.27;0.70;;;;;;;-7.54;85.04;98231.31;6248198;28;20246;-73
2022/01/07 06:48:49;;;;;;;1.10;0.80;;;;;;;-7.48;85.78;98221.03;6218710;28;20262;-72
2022/01/07 06:51:51;;;;;;;0.80;0.80;;;;;;;-7.44;86.37;98224.47;6228629;28;20341;-72
2022/01/07 06:54:53;;;;;;;0.77;0.70;;;;;;;-7.42;85.89;98221.91;6247920;28;20324;-72
2022/01/07 06:57:56;;;;;;;1.30;0.77;;;;;;;-7.38;85.04;98233.84;6251857;28;20238;-72
2022/01/07 07:00:58;;;;;;;3.03;0.83;;;;;;;-7.39;85.72;98227.03;6251908;28;20243;-70
2022/01/07 07:04:00;;;;;;;3.33;1.13;;;;;;;-7.39;86.35;98227.88;6253018;28;20233;-70
2022/01/07 07:07:03;;;;;;;1.23;0.73;;;;;;;-7.37;85.26;98231.28;6251212;28;20222;-68
2022/01/07 07:10:05;;;;;;;2.33;1.07;;;;;;;-7.36;86.10;98232.13;6252211;28;20296;-69
2022/01/07 07:13:07;;;;;;;2.10;0.77;;;;;;;-7.37;86.38;98227.88;6251476;28;20242;-69
2022/01/07 07:16:09;;;;;;;3.80;0.87;;;;;;;-7.35;85.24;98231.28;6241961;28;20230;-68
2022/01/07 07:19:11;;;;;;;0.93;0.80;;;;;;;-7.32;85.89;98229.59;6255758;28;20244;-69
2022/01/07 07:22:13;;;;;;;1.77;0.60;;;;;;;-7.34;84.82;98222.75;6256570;28;20278;-68
2022/01/07 07:25:15;;;;;;;1.77;0.80;;;;;;;-7.33;84.84;98221.88;6255805;28;20259;-68
2022/01/07 07:28:18;;;;;;;0.97;0.87;;;;;;;-7.30;86.09;98222.75;6254496;28;20235;-68
2022/01/07 07:31:21;;;;;;;2.30;1.00;;;;;;;-7.27;85.82;98215.03;6216532;28;20242;-69
2022/01/07 07:37:43;;;;;;;2.17;0.90;;;;;;;-7.20;84.74;98215.91;6237436;28;20223;-69
2022/01/07 07:40:45;;;;;;;1.00;0.87;;;;;;;-7.18;84.74;98219.28;6253936;28;20273;-69
2022/01/07 07:43:47;;;;;;;1.37;0.77;;;;;;;-7.15;85.59;98216.72;6238469;28;20212;-68
2022/01/07 07:46:49;;;;;;;0.90;0.70;;;;;;;-7.11;85.81;98213.31;6222429;28;20220;-69
2022/01/07 07:49:51;;;;;;;1.30;0.93;;;;;;;-7.06;85.79;98203.88;6217628;28;20227;-68
2022/01/07 07:52:53;;;;;;;4.00;1.23;;;;;;;-6.95;85.98;98202.16;6242369;28;20230;-68
2022/01/07 07:55:55;;;;;;;2.00;0.90;;;;;;;-6.87;85.15;98207.25;6256029;28;20235;-69
2022/01/07 07:58:58;;;;;;;2.07;0.90;;;;;;;-6.83;85.33;98201.25;6256146;28;20223;-69
2022/01/07 08:02:01;;;;;;;1.10;0.90;;;;;;;-6.75;84.66;98195.25;6253860;28;20231;-69
2022/01/07 08:05:04;;;;;;;2.03;1.00;;;;;;;-6.66;85.13;98185.78;6228620;28;20706;-68
2022/01/07 08:08:06;;;;;;;2.20;1.07;;;;;;;-6.57;85.54;98180.63;6229454;28;20227;-69
2022/01/07 08:11:11;;;;;;;1.57;1.00;;;;;;;-6.50;85.52;98184.88;6255955;28;20225;-68
2022/01/07 08:17:41;;;;;;;4.33;1.27;;;;;;;-6.39;85.55;98178.81;6231552;28;20341;-69
2022/01/07 08:20:43;;;;;;;1.90;1.30;;;;;;;-6.35;85.57;98167.66;6250007;28;20234;-69
2022/01/07 08:23:46;;;;;;;1.20;1.10;;;;;;;-6.26;84.70;98165.91;6253597;28;20288;-69
2022/01/07 08:26:48;;;;;;;2.73;1.37;;;;;;;-6.17;84.74;98164.13;6252771;28;20227;-69
2022/01/07 08:29:51;;;;;;;1.90;1.27;;;;;;;-6.10;84.87;98157.25;6255223;28;20228;-69
2022/01/07 08:36:15;;;;;;;1.73;1.20;;;;;;;-5.97;84.96;98148.56;6229559;28;20235;-69
2022/01/07 08:39:17;;;;;;;2.30;1.30;;;;;;;-5.91;84.64;98152.84;6231996;28;20202;-68
2022/01/07 08:42:21;;;;;;;2.97;1.27;;;;;;;-5.81;84.30;98149.28;6253917;28;20726;-69
2022/01/07 08:45:24;;;;;;;2.73;1.30;;;;;;;-5.76;84.65;98150.09;6250927;28;20220;-69
2022/01/07 08:48:27;;;;;;;1.53;1.00;;;;;;;-5.67;84.83;98152.59;6232495;28;20236;-68
2022/01/07 08:51:29;;;;;;;1.73;1.00;;;;;;;-5.55;84.46;98144.78;6226895;28;20227;-73
2022/01/07 08:54:31;;;;;;;1.43;1.00;;;;;;;-5.45;83.94;98141.25;6243948;28;20223;-73
2022/01/07 08:57:33;;;;;;;2.90;1.10;;;;;;;-5.27;83.85;98143.63;6254484;28;20227;-71
2022/01/07 09:00:35;;;;;;;1.27;0.90;;;;;;;-5.01;83.71;98142.50;6253072;28;20449;-70
2022/01/07 09:03:37;;;;;;;2.43;1.13;;;;;;;-4.77;82.71;98142.22;6254556;28;20226;-70
2022/01/07 09:06:39;;;;;;;1.10;0.97;;;;;;;-4.23;79.24;98134.63;6253263;28;20651;-70
2022/01/07 09:09:41;;;;;;;1.87;1.10;;;;;;;-3.84;78.87;98131.44;6252794;28;20227;-70
2022/01/07 09:12:44;;;;;;;1.40;1.10;;;;;;;-3.52;76.58;98122.31;6253760;28;20226;-70
2022/01/07 09:15:47;;;;;;;2.50;1.50;;;;;;;-3.22;75.03;98118.34;6245535;28;20268;-70
2022/01/07 09:18:49;;;;;;;1.43;1.20;;;;;;;-2.89;72.78;98106.50;6247247;28;20373;-71
2022/01/07 09:21:51;;;;;;;1.23;1.10;;;;;;;-2.61;70.07;98103.34;6252428;28;20238;-70
2022/01/07 09:24:53;;;;;;;3.43;1.00;;;;;;;-2.34;68.99;98095.84;6252221;28;20231;-71
2022/01/07 09:27:55;;;;;;;3.03;1.00;;;;;;;-2.08;68.76;98085.75;6227663;28;20245;-71
2022/01/07 09:30:57;;;;;;;1.30;0.83;;;;;;;-1.88;67.84;98080.09;6231849;28;20692;-72
2022/01/07 09:33:59;;;;;;;1.50;0.60;;;;;;;-1.64;65.77;98078.66;6227824;28;20224;-72
2022/01/07 09:37:21;;;;;;;2.40;1.03;;;;;;;-1.35;65.11;98065.78;6227393;28;20244;-70
2022/01/07 09:40:23;;;;;;;2.70;0.90;;;;;;;-1.13;65.50;98058.31;6222790;28;20223;-70
2022/01/07 09:43:25;;;;;;;1.27;0.90;;;;;;;-0.85;63.38;98059.22;6246978;28;20239;-70
2022/01/07 09:46:29;;;;;;;1.90;0.97;;;;;;;-0.58;63.19;98048.91;6240575;28;20239;-70
2022/01/07 09:49:33;;;;;;;1.50;0.90;;;;;;;-0.33;61.52;98047.28;6224753;28;20255;-71
2022/01/07 09:52:39;;;;;;;1.10;1.00;;;;;;;-0.11;62.31;98039.69;6219235;28;20266;-70
2022/01/07 09:55:43;;;;;;;2.93;1.10;;;;;;;0.07;59.22;98038.25;6235336;28;20279;-71
2022/01/07 09:58:45;;;;;;;2.90;1.00;;;;;;;0.30;61.22;98036.56;6254025;28;20231;-73
2022/01/07 10:01:57;;;;;;;2.03;1.03;;;;;;;0.49;61.76;98035.97;6248037;28;20243;-71
2022/01/07 10:05:15;;;;;;;1.57;0.93;;;;;;;0.49;59.55;98029.03;6227308;28;21128;-71
2022/01/07 10:08:18;;;;;;;2.53;1.23;;;;;;;0.70;58.83;98017.84;6248532;28;20223;-71
2022/01/07 10:11:20;;;;;;;2.47;1.10;;;;;;;0.79;56.77;98015.84;6248392;28;20238;-71
2022/01/07 10:14:23;;;;;;;3.33;1.13;;;;;;;0.83;56.71;98004.44;6251878;28;20246;-71
2022/01/07 10:17:25;;;;;;;2.07;1.40;;;;;;;0.99;58.39;98003.00;6225861;28;20232;-72
2022/01/07 10:20:36;;;;;;;4.80;1.30;;;;;;;1.10;57.53;98000.81;6239375;28;20227;-72
2022/01/07 10:23:38;;;;;;;3.03;1.30;;;;;;;1.28;58.16;97992.34;6218883;28;20217;-72
2022/01/07 10:26:40;;;;;;;3.63;1.40;;;;;;;1.50;57.39;97984.53;6218641;28;20223;-72
2022/01/07 10:29:44;;;;;;;2.07;1.30;;;;;;;1.35;55.53;97980.78;6246358;28;20255;-72
2022/01/07 10:32:46;;;;;;;3.00;1.70;;;;;;;1.50;56.93;97979.34;6232567;28;20239;-72
2022/01/07 10:35:55;;;;;;;1.50;1.40;;;;;;;1.37;57.13;97973.78;6231869;28;20224;-72
2022/01/07 10:39:04;;;;;;;2.97;1.83;;;;;;;1.42;57.03;97979.66;6226416;28;20228;-73
2022/01/07 10:42:06;;;;;;;3.83;2.30;;;;;;;1.53;57.12;97974.03;6248827;28;20242;-73
2022/01/07 10:45:08;;;;;;;2.67;1.80;;;;;;;1.28;56.34;97968.09;6249001;28;20214;-74
2022/01/07 10:48:12;;;;;;;5.00;2.73;;;;;;;1.37;58.42;97965.16;6226455;28;20200;-73
2022/01/07 10:51:23;;;;;;;2.83;1.80;;;;;;;1.54;57.11;97961.88;6224921;28;20207;-73
2022/01/07 10:54:25;;;;;;;3.43;2.33;;;;;;;1.53;56.69;97960.16;6216266;28;20224;-73
2022/01/07 10:57:41;;;;;;;5.80;2.07;;;;;;;1.55;57.91;97946.22;6217674;28;20222;-73
2022/01/07 11:00:43;;;;;;;3.70;2.00;;;;;;;1.57;57.16;97936.59;6257741;28;20230;-72
2022/01/07 11:03:50;;;;;;;2.50;1.80;;;;;;;1.74;58.31;97941.09;6255815;28;20234;-70
2022/01/07 11:06:56;;;;;;;6.07;2.20;;;;;;;1.77;56.90;97941.00;6230856;28;20231;-71
2022/01/07 11:09:59;;;;;;;3.60;1.90;;;;;;;1.87;55.42;97933.66;6232177;28;20759;-72
2022/01/07 11:13:01;;;;;;;2.30;1.60;;;;;;;1.76;56.72;97924.53;6231203;28;20699;-72
2022/01/07 11:16:04;;;;;;;3.40;2.33;;;;;;;1.82;57.79;97929.47;6237288;28;20711;-73
2022/01/07 11:19:08;;;;;;;5.33;2.03;;;;;;;1.93;57.00;97926.41;6242233;28;20711;-72
2022/01/07 11:22:14;;;;;;;3.77;2.40;;;;;;;1.94;56.01;97922.06;6237937;28;20249;-71
2022/01/07 11:25:16;;;;;;;4.43;2.17;;;;;;;2.02;55.33;97910.41;6229907;28;20228;-72
2022/01/07 11:28:18;;;;;;;3.27;2.00;;;;;;;2.04;55.49;97908.59;6234942;28;20682;-73
2022/01/07 11:31:20;;;;;;;2.10;1.90;;;;;;;2.05;53.90;97905.09;6254950;28;20235;-72
2022/01/07 11:34:26;;;;;;;3.67;1.80;;;;;;;2.05;53.42;97905.09;6248176;28;20691;-72
2022/01/07 11:37:40;;;;;;;2.77;1.57;;;;;;;2.22;53.86;97893.94;6231996;28;20762;-72
2022/01/07 11:40:45;;;;;;;4.23;1.60;;;;;;;2.40;55.05;97900.94;6254151;28;20231;-73
2022/01/07 11:43:47;;;;;;;3.73;1.60;;;;;;;2.39;54.16;97896.69;6237577;28;20224;-73
2022/01/07 11:46:50;;;;;;;2.63;1.80;;;;;;;2.43;56.07;97894.75;6221484;28;20238;-72
2022/01/07 11:50:04;;;;;;;3.60;1.90;;;;;;;2.39;54.94;97901.03;6231228;28;20262;-72
2022/01/07 11:53:06;;;;;;;3.43;1.77;;;;;;;2.46;54.16;97900.69;6242448;28;20242;-71
2022/01/07 11:56:10;;;;;;;3.80;1.77;;;;;;;2.48;53.81;97898.03;6254738;28;20227;-72
2022/01/07 11:59:15;;;;;;;3.23;1.40;;;;;;;2.51;53.05;97901.31;6255506;28;20230;-72
2022/01/07 12:02:17;;;;;;;2.73;1.60;;;;;;;2.48;51.73;97898.88;6254700;28;20722;-72
2022/01/07 12:05:32;;;;;;;2.10;1.37;;;;;;;2.64;50.69;97899.00;6254832;28;20565;-70
2022/01/07 12:09:08;;;;;;;3.77;1.53;;;;;;;2.82;50.06;97887.75;6255682;28;20717;-72
2022/01/07 12:12:13;;;;;;;2.93;1.70;;;;;;;3.09;50.20;97884.78;6253610;28;20246;-71
2022/01/07 12:15:16;;;;;;;4.07;1.60;;;;;;;3.01;49.64;97872.09;6254412;28;20235;-71
2022/01/07 12:18:18;;;;;;;1.90;1.60;;;;;;;3.09;49.78;97882.19;6249903;28;20239;-72
2022/01/07 12:21:20;;;;;;;2.50;1.30;;;;;;;3.24;48.58;97876.22;6255486;28;20228;-71
2022/01/07 12:24:24;;;;;;;2.60;1.60;;;;;;;3.08;48.83;97872.69;6255143;28;20265;-71
2022/01/07 12:27:26;;;;;;;3.00;1.53;;;;;;;3.11;49.74;97875.13;6254354;28;20223;-72
2022/01/07 12:30:28;;;;;;;2.87;1.40;;;;;;;3.58;49.23;97872.84;6254354;28;20224;-71
2022/01/07 12:33:30;;;;;;;3.03;1.73;;;;;;;3.85;48.04;97862.78;6253890;28;20220;-71
2022/01/07 12:36:34;;;;;;;2.83;1.77;;;;;;;3.75;48.76;97864.16;6230357;28;20275;-72
2022/01/07 12:39:44;;;;;;;3.23;1.57;;;;;;;3.96;49.27;97855.25;6230932;28;20222;-71
2022/01/07 12:42:46;;;;;;;2.27;1.30;;;;;;;4.27;48.51;97857.97;6250237;28;20528;-70
2022/01/07 12:46:02;;;;;;;3.07;1.47;;;;;;;4.58;46.79;97845.91;6247610;28;20223;-71
2022/01/07 12:49:08;;;;;;;3.43;1.70;;;;;;;4.54;46.17;97849.59;6229683;28;20321;-72
2022/01/07 12:52:18;;;;;;;3.57;2.17;;;;;;;4.52;46.18;97851.44;6244790;28;20233;-71
2022/01/07 12:55:24;;;;;;;4.27;1.63;;;;;;;5.25;45.98;97842.19;6255004;28;20233;-70
2022/01/07 12:58:28;;;;;;;3.20;2.10;;;;;;;6.10;42.68;97842.47;6254551;28;20226;-71
2022/01/07 13:01:31;;;;;;;4.30;1.37;;;;;;;6.59;41.67;97835.94;6254276;28;20235;-72
2022/01/07 13:04:34;;;;;;;1.87;1.30;;;;;;;6.88;41.00;97828.06;6251657;28;20229;-72
2022/01/07 13:07:46;;;;;;;2.57;1.30;;;;;;;7.09;39.28;97815.34;6252384;28;20234;-73
2022/01/07 13:10:50;;;;;;;2.23;1.70;;;;;;;5.19;42.13;97822.47;6253618;28;20237;-72
2022/01/07 13:14:07;;;;;;;2.93;1.67;;;;;;;4.08;45.25;97824.16;6255105;28;20720;-72
2022/01/07 13:17:10;;;;;;;4.03;1.50;;;;;;;3.28;46.79;97823.88;6236877;28;20293;-73
2022/01/07 13:20:27;;;;;;;2.50;1.60;;;;;;;2.75;48.65;97829.03;6247099;28;20243;-73
2022/01/07 13:23:29;;;;;;;3.13;1.60;;;;;;;2.45;49.28;97833.88;6252726;28;20294;-72
2022/01/07 13:26:34;;;;;;;2.50;1.80;;;;;;;2.22;50.56;97829.69;6252313;28;20227;-73
2022/01/07 13:29:36;;;;;;;2.63;1.70;;;;;;;2.03;49.90;97827.97;6253344;28;20239;-72
2022/01/07 13:32:38;;;;;;;2.40;1.57;;;;;;;1.80;50.59;97823.75;6253398;28;20250;-72
2022/01/07 13:35:41;;;;;;;3.67;1.70;;;;;;;1.63;51.54;97832.28;6232640;28;20533;-72
2022/01/07 13:38:43;;;;;;;3.17;1.47;;;;;;;1.54;52.67;97824.03;6229875;28;20235;-73
2022/01/07 13:41:53;;;;;;;3.63;1.97;;;;;;;1.41;52.49;97837.53;6253630;28;20227;-73
2022/01/07 13:44:58;;;;;;;4.73;1.97;;;;;;;1.33;52.54;97833.56;6253363;28;20227;-72
2022/01/07 13:48:08;;;;;;;3.13;1.70;;;;;;;1.24;52.92;97824.41;6239370;28;20236;-68
2022/01/07 13:51:10;;;;;;;2.93;2.07;;;;;;;1.19;52.99;97828.94;6228243;28;20228;-72
2022/01/07 13:54:14;;;;;;;2.60;1.73;;;;;;;1.02;54.64;97824.41;6244120;28;20227;-72
2022/01/07 13:57:16;;;;;;;3.47;1.90;;;;;;;0.93;54.73;97829.13;6252034;28;20229;-73
2022/01/07 14:00:18;;;;;;;2.23;1.90;;;;;;;0.89;55.03;97824.97;6251513;28;20211;-72
2022/01/07 14:03:24;;;;;;;4.27;2.00;;;;;;;0.82;55.11;97836.50;6252965;28;20234;-72
2022/01/07 14:06:27;;;;;;;3.53;2.20;;;;;;;0.76;55.48;97836.75;6253366;28;20729;-72
2022/01/07 14:09:29;;;;;;;4.30;2.40;;;;;;;0.68;56.48;97831.84;6252449;28;20219;-72
2022/01/07 14:12:32;;;;;;;3.93;2.70;;;;;;;0.60;57.27;97832.13;6252065;28;20233;-72
2022/01/07 14:15:39;;;;;;;3.13;2.57;;;;;;;0.52;57.46;97826.38;6247649;28;20243;-72
2022/01/07 14:18:40;;;;;;;3.27;2.00;;;;;;;0.45;57.67;97830.13;6250761;28;20231;-72
2022/01/07 14:21:43;;;;;;;5.53;2.17;;;;;;;0.38;58.13;97830.41;6254608;28;20227;-72
2022/01/07 14:24:45;;;;;;;5.27;2.30;;;;;;;0.25;59.07;97832.59;6254640;28;20223;-71
2022/01/07 14:27:47;;;;;;;4.50;2.30;;;;;;;0.05;61.20;97835.06;6252692;28;20222;-71
2022/01/07 14:30:49;;;;;;;3.97;1.90;;;;;;;-0.12;60.81;97839.13;6252176;28;20225;-71
2022/01/07 14:33:51;;;;;;;4.93;2.67;;;;;;;-0.11;60.91;97838.22;6248014;28;20216;-71
2022/01/07 14:36:53;;;;;;;2.77;2.00;;;;;;;-0.22;61.83;97844.69;6226231;28;20224;-72